EAG5501 KMIA-SBKP
Flight info
| Callsign | EAG5501 |
|---|---|
| Flight time | N/A |
| Altitude | 35000 |
| Route | KLADA2 JAGOR Y398 KNSLY Y298 BODLO UL304 CBC UM417 LAIKA/N0467F370 UZ6 MNS UZ87 OVTUX/N0460F390 UZ87 PALCA UM411 UTLOT |
| Aircraft | A332/H-SDE2E3FGHIJ4J5M1RWXY/LB1D1 |
Departure
| Time | 2026-05-05 02:58 |
|---|---|
| Airport | Miami International Airport (KMIA) |
Arrival
| Time | N/A |
|---|---|
| Airport | Viracopos International Airport (SBKP) |
| Time | Latitude | Longitude | Altitude | Speed | Heading |
|---|---|---|---|---|---|
| 2026-05-05 02:13 | 25.80505 | -80.29574 | 19 ft | 0 kts | 357° |
| 2026-05-05 02:51 | 25.80485 | -80.29573 | 20 ft | 4 kts | 357° |
| 2026-05-05 02:51 | 25.80458 | -80.29572 | 20 ft | 3 kts | 358° |
| 2026-05-05 02:51 | 25.80435 | -80.29568 | 20 ft | 4 kts | 323° |
| 2026-05-05 02:51 | 25.80425 | -80.29546 | 23 ft | 4 kts | 267° |
| 2026-05-05 02:52 | 25.80427 | -80.29525 | 22 ft | 1 kts | 268° |
| 2026-05-05 02:52 | 25.80427 | -80.29522 | 21 ft | 0 kts | 268° |
| 2026-05-05 02:55 | 25.80426 | -80.29540 | 18 ft | 6 kts | 268° |
| 2026-05-05 02:55 | 25.80424 | -80.29598 | 19 ft | 8 kts | 268° |
| 2026-05-05 02:55 | 25.80421 | -80.29671 | 19 ft | 11 kts | 268° |
| 2026-05-05 02:55 | 25.80417 | -80.29776 | 19 ft | 16 kts | 267° |
| 2026-05-05 02:56 | 25.80411 | -80.29904 | 18 ft | 17 kts | 267° |
| 2026-05-05 02:56 | 25.80401 | -80.30037 | 18 ft | 16 kts | 247° |
| 2026-05-05 02:56 | 25.80302 | -80.30066 | 18 ft | 16 kts | 179° |
| 2026-05-05 02:56 | 25.80191 | -80.30061 | 18 ft | 16 kts | 176° |
| 2026-05-05 02:57 | 25.80082 | -80.30045 | 17 ft | 6 kts | 144° |
| 2026-05-05 02:57 | 25.80077 | -80.30025 | 16 ft | 3 kts | 97° |
| 2026-05-05 02:57 | 25.80077 | -80.29997 | 16 ft | 4 kts | 89° |
| 2026-05-05 02:57 | 25.80080 | -80.29917 | 16 ft | 30 kts | 87° |
| 2026-05-05 02:58 | 25.80103 | -80.29379 | 19 ft | 108 kts | 87° |
| 2026-05-05 02:58 | 25.80148 | -80.28291 | 23 ft | 172 kts | 88° |
| 2026-05-05 02:58 | 25.80198 | -80.26873 | 571 ft | 191 kts | 87° |
| 2026-05-05 02:58 | 25.80062 | -80.25372 | 1351 ft | 206 kts | 103° |
| 2026-05-05 02:59 | 25.79513 | -80.23779 | 1955 ft | 231 kts | 115° |
| 2026-05-05 02:59 | 25.78760 | -80.22153 | 2701 ft | 241 kts | 117° |
| 2026-05-05 02:59 | 25.77964 | -80.20465 | 3477 ft | 250 kts | 117° |
| 2026-05-05 02:59 | 25.77152 | -80.18719 | 4250 ft | 260 kts | 117° |
| 2026-05-05 03:00 | 25.76308 | -80.16921 | 4978 ft | 270 kts | 119° |
| 2026-05-05 03:00 | 25.75380 | -80.15070 | 5749 ft | 278 kts | 120° |
| 2026-05-05 03:00 | 25.74425 | -80.13176 | 6518 ft | 285 kts | 121° |
| 2026-05-05 03:00 | 25.73485 | -80.11213 | 7311 ft | 290 kts | 116° |
| 2026-05-05 03:01 | 25.72724 | -80.09134 | 8190 ft | 292 kts | 112° |
| 2026-05-05 03:01 | 25.72012 | -80.06995 | 8980 ft | 298 kts | 112° |
| 2026-05-05 03:01 | 25.71297 | -80.04822 | 9784 ft | 302 kts | 112° |
| 2026-05-05 03:01 | 25.70565 | -80.02603 | 10390 ft | 313 kts | 112° |
| 2026-05-05 03:02 | 25.69791 | -80.00270 | 10711 ft | 332 kts | 112° |
| 2026-05-05 03:02 | 25.68969 | -79.97794 | 11028 ft | 350 kts | 112° |
| 2026-05-05 03:02 | 25.68120 | -79.95232 | 11435 ft | 363 kts | 112° |
| 2026-05-05 03:02 | 25.67238 | -79.92574 | 11974 ft | 371 kts | 112° |
| 2026-05-05 03:03 | 25.66338 | -79.89859 | 12581 ft | 377 kts | 112° |
| 2026-05-05 03:03 | 25.65423 | -79.87104 | 13185 ft | 383 kts | 112° |
| 2026-05-05 03:03 | 25.64495 | -79.84315 | 13803 ft | 389 kts | 112° |
| 2026-05-05 03:03 | 25.63565 | -79.81520 | 14342 ft | 394 kts | 112° |
| 2026-05-05 03:04 | 25.62605 | -79.78640 | 14926 ft | 398 kts | 112° |
| 2026-05-05 03:04 | 25.61641 | -79.75747 | 15551 ft | 402 kts | 112° |
| 2026-05-05 03:04 | 25.60664 | -79.72818 | 16102 ft | 408 kts | 112° |
| 2026-05-05 03:04 | 25.59624 | -79.69877 | 16651 ft | 412 kts | 116° |
| 2026-05-05 03:05 | 25.58417 | -79.67018 | 17190 ft | 417 kts | 118° |
| 2026-05-05 03:05 | 25.57131 | -79.64112 | 17735 ft | 422 kts | 119° |
| 2026-05-05 03:05 | 25.55821 | -79.61168 | 18286 ft | 427 kts | 119° |
| 2026-05-05 03:05 | 25.54499 | -79.58197 | 18775 ft | 432 kts | 119° |
| 2026-05-05 03:06 | 25.53164 | -79.55193 | 19287 ft | 435 kts | 119° |
| 2026-05-05 03:06 | 25.51838 | -79.52209 | 19803 ft | 439 kts | 119° |
| 2026-05-05 03:06 | 25.50483 | -79.49160 | 20312 ft | 442 kts | 119° |
| 2026-05-05 03:06 | 25.49116 | -79.46088 | 20806 ft | 446 kts | 119° |
| 2026-05-05 03:07 | 25.47742 | -79.43001 | 21313 ft | 449 kts | 119° |
| 2026-05-05 03:07 | 25.46357 | -79.39890 | 21821 ft | 452 kts | 119° |
| 2026-05-05 03:07 | 25.44961 | -79.36755 | 22319 ft | 455 kts | 119° |
| 2026-05-05 03:07 | 25.43553 | -79.33598 | 22800 ft | 459 kts | 119° |
| 2026-05-05 03:08 | 25.42156 | -79.30467 | 23265 ft | 462 kts | 119° |
| 2026-05-05 03:08 | 25.40727 | -79.27267 | 23716 ft | 465 kts | 119° |
| 2026-05-05 03:08 | 25.39289 | -79.24049 | 24094 ft | 469 kts | 119° |
| 2026-05-05 03:08 | 25.37837 | -79.20801 | 24461 ft | 472 kts | 119° |
| 2026-05-05 03:09 | 25.36373 | -79.17529 | 24818 ft | 475 kts | 119° |
| 2026-05-05 03:09 | 25.34897 | -79.14232 | 25196 ft | 478 kts | 119° |
| 2026-05-05 03:09 | 25.33433 | -79.10965 | 25541 ft | 481 kts | 119° |
| 2026-05-05 03:09 | 25.31938 | -79.07631 | 25916 ft | 484 kts | 119° |
| 2026-05-05 03:10 | 25.30436 | -79.04285 | 26271 ft | 487 kts | 119° |
| 2026-05-05 03:10 | 25.28920 | -79.00910 | 26645 ft | 489 kts | 119° |
| 2026-05-05 03:10 | 25.27399 | -78.97526 | 27002 ft | 492 kts | 119° |
| 2026-05-05 03:10 | 25.25889 | -78.94169 | 27317 ft | 495 kts | 119° |
| 2026-05-05 03:11 | 25.24344 | -78.90737 | 27643 ft | 498 kts | 119° |
| 2026-05-05 03:11 | 25.22793 | -78.87294 | 27967 ft | 501 kts | 119° |
| 2026-05-05 03:11 | 25.21236 | -78.83840 | 28246 ft | 503 kts | 119° |
| 2026-05-05 03:11 | 25.19685 | -78.80404 | 28579 ft | 506 kts | 119° |
| 2026-05-05 03:12 | 25.18111 | -78.76918 | 28887 ft | 508 kts | 119° |
| 2026-05-05 03:12 | 25.16528 | -78.73414 | 29190 ft | 511 kts | 119° |
| 2026-05-05 03:12 | 25.14934 | -78.69889 | 29513 ft | 513 kts | 119° |
| 2026-05-05 03:12 | 25.13335 | -78.66355 | 29810 ft | 515 kts | 120° |
| 2026-05-05 03:13 | 25.12270 | -78.64005 | 30006 ft | 517 kts | 120° |
| 2026-05-05 03:13 | 25.10126 | -78.59274 | 30332 ft | 520 kts | 120° |
| 2026-05-05 03:13 | 25.09019 | -78.56919 | 30488 ft | 521 kts | 121° |
| 2026-05-05 03:13 | 25.07282 | -78.53409 | 30724 ft | 523 kts | 122° |
| 2026-05-05 03:14 | 25.05520 | -78.49878 | 30967 ft | 525 kts | 122° |
| 2026-05-05 03:14 | 25.03757 | -78.46334 | 31212 ft | 527 kts | 122° |
| 2026-05-05 03:14 | 25.01994 | -78.42779 | 31411 ft | 529 kts | 122° |
| 2026-05-05 03:14 | 25.00227 | -78.39213 | 31651 ft | 531 kts | 122° |
| 2026-05-05 03:15 | 24.98449 | -78.35618 | 31862 ft | 533 kts | 122° |
| 2026-05-05 03:15 | 24.96675 | -78.32034 | 32146 ft | 533 kts | 122° |
| 2026-05-05 03:15 | 24.94925 | -78.28499 | 32440 ft | 533 kts | 122° |
| 2026-05-05 03:15 | 24.93152 | -78.24917 | 32747 ft | 533 kts | 122° |
| 2026-05-05 03:16 | 24.91373 | -78.21329 | 33037 ft | 533 kts | 122° |
| 2026-05-05 03:16 | 24.89598 | -78.17751 | 33314 ft | 533 kts | 122° |
| 2026-05-05 03:16 | 24.87813 | -78.14154 | 33585 ft | 533 kts | 122° |
| 2026-05-05 03:16 | 24.86035 | -78.10575 | 33862 ft | 532 kts | 122° |
| 2026-05-05 03:17 | 24.84277 | -78.07040 | 34094 ft | 532 kts | 122° |
| 2026-05-05 03:17 | 24.82501 | -78.03469 | 34359 ft | 531 kts | 122° |
| 2026-05-05 03:17 | 24.80725 | -77.99901 | 34595 ft | 531 kts | 122° |
| 2026-05-05 03:17 | 24.78945 | -77.96331 | 34820 ft | 531 kts | 122° |
| 2026-05-05 03:18 | 24.77168 | -77.92767 | 34996 ft | 531 kts | 123° |
| 2026-05-05 03:18 | 24.75407 | -77.89234 | 35014 ft | 520 kts | 123° |
| 2026-05-05 03:18 | 24.73685 | -77.85778 | 35032 ft | 509 kts | 123° |
| 2026-05-05 03:19 | 24.68587 | -77.75647 | 35012 ft | 505 kts | 126° |
| 2026-05-05 03:19 | 24.64291 | -77.69677 | 35029 ft | 494 kts | 139° |
| 2026-05-05 03:20 | 24.59552 | -77.64251 | 35029 ft | 493 kts | 141° |
| 2026-05-05 03:20 | 24.54719 | -77.58862 | 35008 ft | 494 kts | 141° |
| 2026-05-05 03:21 | 24.49954 | -77.53503 | 35009 ft | 490 kts | 141° |
| 2026-05-05 03:21 | 24.45221 | -77.48143 | 35017 ft | 487 kts | 141° |
| 2026-05-05 03:22 | 24.40509 | -77.42803 | 35020 ft | 486 kts | 141° |
| 2026-05-05 03:22 | 24.35821 | -77.37498 | 35021 ft | 486 kts | 141° |
| 2026-05-05 03:23 | 24.31099 | -77.32161 | 35020 ft | 486 kts | 141° |
| 2026-05-05 03:23 | 24.26375 | -77.26829 | 35020 ft | 486 kts | 141° |
| 2026-05-05 03:24 | 24.21685 | -77.21538 | 35016 ft | 486 kts | 142° |
| 2026-05-05 03:24 | 24.16984 | -77.16239 | 35017 ft | 482 kts | 142° |
| 2026-05-05 03:25 | 24.12314 | -77.10984 | 35020 ft | 481 kts | 142° |
| 2026-05-05 03:25 | 24.07660 | -77.05756 | 35020 ft | 481 kts | 142° |
| 2026-05-05 03:26 | 24.02979 | -77.00502 | 35018 ft | 481 kts | 142° |
| 2026-05-05 03:26 | 23.98318 | -76.95276 | 35018 ft | 482 kts | 142° |
| 2026-05-05 03:27 | 23.93634 | -76.90027 | 35020 ft | 482 kts | 142° |
| 2026-05-05 03:27 | 23.88976 | -76.84815 | 35021 ft | 481 kts | 142° |
| 2026-05-05 03:28 | 23.84303 | -76.79590 | 35020 ft | 479 kts | 142° |
| 2026-05-05 03:28 | 23.79639 | -76.74382 | 35006 ft | 478 kts | 142° |
| 2026-05-05 03:29 | 23.75003 | -76.69212 | 35019 ft | 477 kts | 142° |
| 2026-05-05 03:29 | 23.70358 | -76.64038 | 35019 ft | 477 kts | 142° |
| 2026-05-05 03:30 | 23.65696 | -76.58851 | 35022 ft | 477 kts | 142° |
| 2026-05-05 03:30 | 23.61071 | -76.53710 | 35019 ft | 477 kts | 142° |
| 2026-05-05 03:31 | 23.56409 | -76.48532 | 35023 ft | 477 kts | 142° |
| 2026-05-05 03:31 | 23.51766 | -76.43379 | 35022 ft | 474 kts | 142° |
| 2026-05-05 03:32 | 23.47160 | -76.38275 | 35021 ft | 474 kts | 142° |
| 2026-05-05 03:32 | 23.42503 | -76.33126 | 35096 ft | 480 kts | 141° |
| 2026-05-05 03:33 | 23.37764 | -76.27893 | 35277 ft | 487 kts | 141° |
| 2026-05-05 03:33 | 23.32972 | -76.22602 | 35471 ft | 493 kts | 141° |
| 2026-05-05 03:34 | 23.30585 | -76.19966 | 35631 ft | 495 kts | 141° |
| 2026-05-05 03:34 | 23.28161 | -76.17290 | 35801 ft | 496 kts | 141° |
| 2026-05-05 03:34 | 23.25731 | -76.14609 | 35977 ft | 496 kts | 141° |
| 2026-05-05 03:34 | 23.23310 | -76.11937 | 36223 ft | 495 kts | 141° |
| 2026-05-05 03:35 | 23.20894 | -76.09274 | 36454 ft | 494 kts | 141° |
| 2026-05-05 03:35 | 23.18470 | -76.06604 | 36644 ft | 495 kts | 142° |
| 2026-05-05 03:35 | 23.16045 | -76.03937 | 36820 ft | 495 kts | 142° |
| 2026-05-05 03:35 | 23.13652 | -76.01306 | 36984 ft | 496 kts | 142° |
| 2026-05-05 03:36 | 23.08841 | -75.96014 | 37030 ft | 486 kts | 141° |
| 2026-05-05 03:36 | 23.04089 | -75.90797 | 37027 ft | 484 kts | 142° |
| 2026-05-05 03:37 | 22.99374 | -75.85635 | 37029 ft | 484 kts | 142° |
| 2026-05-05 03:37 | 22.94621 | -75.80433 | 37027 ft | 484 kts | 142° |
| 2026-05-05 03:38 | 22.89871 | -75.75239 | 37026 ft | 485 kts | 142° |
| 2026-05-05 03:38 | 22.85109 | -75.70036 | 37026 ft | 486 kts | 142° |
| 2026-05-05 03:39 | 22.80366 | -75.64859 | 37029 ft | 486 kts | 142° |
| 2026-05-05 03:39 | 22.75588 | -75.59648 | 37013 ft | 486 kts | 141° |
| 2026-05-05 03:40 | 22.70804 | -75.54437 | 37028 ft | 487 kts | 141° |
| 2026-05-05 03:40 | 22.66021 | -75.49232 | 37032 ft | 487 kts | 141° |
| 2026-05-05 03:41 | 22.61247 | -75.44042 | 37030 ft | 487 kts | 141° |
| 2026-05-05 03:41 | 22.56492 | -75.38879 | 37031 ft | 488 kts | 142° |
| 2026-05-05 03:42 | 22.51681 | -75.33661 | 37031 ft | 489 kts | 142° |
| 2026-05-05 03:42 | 22.46871 | -75.28449 | 37031 ft | 489 kts | 142° |
| 2026-05-05 03:43 | 22.42063 | -75.23243 | 37032 ft | 489 kts | 142° |
| 2026-05-05 03:43 | 22.37262 | -75.18053 | 37033 ft | 490 kts | 142° |
| 2026-05-05 03:44 | 22.32423 | -75.12826 | 37031 ft | 491 kts | 142° |
| 2026-05-05 03:44 | 22.27615 | -75.07636 | 37037 ft | 491 kts | 142° |
| 2026-05-05 03:45 | 22.22776 | -75.02419 | 37033 ft | 491 kts | 142° |
| 2026-05-05 03:45 | 22.17937 | -74.97208 | 37035 ft | 491 kts | 142° |
| 2026-05-05 03:46 | 22.13118 | -74.92024 | 37034 ft | 491 kts | 142° |
| 2026-05-05 03:46 | 22.08274 | -74.86818 | 37034 ft | 491 kts | 142° |
| 2026-05-05 03:47 | 22.03426 | -74.81613 | 37035 ft | 492 kts | 142° |
| 2026-05-05 03:47 | 21.98597 | -74.76436 | 37037 ft | 493 kts | 142° |
| 2026-05-05 03:48 | 21.93727 | -74.71217 | 37037 ft | 493 kts | 142° |
| 2026-05-05 03:48 | 21.88853 | -74.66000 | 37037 ft | 493 kts | 142° |
| 2026-05-05 03:49 | 21.84009 | -74.60821 | 37039 ft | 493 kts | 142° |
| 2026-05-05 03:49 | 21.79145 | -74.55625 | 37039 ft | 492 kts | 142° |
| 2026-05-05 03:50 | 21.74275 | -74.50429 | 37040 ft | 492 kts | 142° |
| 2026-05-05 03:50 | 21.69399 | -74.45232 | 37034 ft | 492 kts | 142° |
| 2026-05-05 03:51 | 21.64575 | -74.40093 | 37039 ft | 491 kts | 142° |
| 2026-05-05 03:51 | 21.59705 | -74.34913 | 37035 ft | 491 kts | 142° |
| 2026-05-05 03:52 | 21.54870 | -74.29775 | 37040 ft | 490 kts | 142° |
| 2026-05-05 03:52 | 21.50017 | -74.24623 | 37040 ft | 490 kts | 142° |
| 2026-05-05 03:53 | 21.45155 | -74.19466 | 37043 ft | 490 kts | 142° |
| 2026-05-05 03:53 | 21.40319 | -74.14342 | 37043 ft | 490 kts | 142° |
| 2026-05-05 03:54 | 21.35462 | -74.09200 | 37021 ft | 490 kts | 142° |
| 2026-05-05 03:54 | 21.30604 | -74.04063 | 37037 ft | 490 kts | 142° |
| 2026-05-05 03:55 | 21.25736 | -73.98920 | 37043 ft | 490 kts | 141° |
| 2026-05-05 03:55 | 21.20909 | -73.93826 | 37040 ft | 489 kts | 141° |
| 2026-05-05 03:56 | 21.16047 | -73.88699 | 37044 ft | 489 kts | 141° |
| 2026-05-05 03:56 | 21.11187 | -73.83579 | 37038 ft | 489 kts | 141° |
| 2026-05-05 03:57 | 21.06363 | -73.78503 | 37034 ft | 489 kts | 142° |
| 2026-05-05 03:57 | 21.01494 | -73.73384 | 37033 ft | 490 kts | 142° |
| 2026-05-05 03:58 | 20.96617 | -73.68261 | 37037 ft | 489 kts | 141° |
| 2026-05-05 03:58 | 20.91941 | -73.63004 | 37034 ft | 492 kts | 136° |
| 2026-05-05 03:59 | 20.87475 | -73.57441 | 37038 ft | 492 kts | 136° |
| 2026-05-05 03:59 | 20.83765 | -73.52821 | 37037 ft | 491 kts | 136° |
| 2026-05-05 04:00 | 20.78526 | -73.46420 | 37045 ft | 491 kts | 137° |
| 2026-05-05 04:00 | 20.73994 | -73.40944 | 37044 ft | 491 kts | 137° |
| 2026-05-05 04:01 | 20.70222 | -73.36398 | 37039 ft | 491 kts | 137° |
| 2026-05-05 04:01 | 20.65683 | -73.30928 | 37043 ft | 491 kts | 137° |
| 2026-05-05 04:02 | 20.61177 | -73.25501 | 37041 ft | 491 kts | 136° |
| 2026-05-05 04:02 | 20.56643 | -73.20043 | 37041 ft | 491 kts | 137° |
| 2026-05-05 04:03 | 20.52104 | -73.14585 | 37042 ft | 491 kts | 137° |
| 2026-05-05 04:03 | 20.47593 | -73.09166 | 37041 ft | 491 kts | 137° |
| 2026-05-05 04:04 | 20.43052 | -73.03723 | 37044 ft | 490 kts | 138° |
| 2026-05-05 04:04 | 20.37886 | -72.99173 | 37040 ft | 477 kts | 153° |
| 2026-05-05 04:05 | 20.32282 | -72.95490 | 37041 ft | 475 kts | 156° |
| 2026-05-05 04:05 | 20.26551 | -72.91940 | 37033 ft | 475 kts | 156° |
| 2026-05-05 04:06 | 20.20809 | -72.88396 | 37041 ft | 476 kts | 155° |
| 2026-05-05 04:06 | 20.15113 | -72.84853 | 37043 ft | 477 kts | 155° |
| 2026-05-05 04:07 | 20.09386 | -72.81278 | 37042 ft | 477 kts | 155° |
| 2026-05-05 04:07 | 20.03663 | -72.77706 | 37043 ft | 476 kts | 155° |
| 2026-05-05 04:08 | 19.97966 | -72.74171 | 37046 ft | 476 kts | 156° |
| 2026-05-05 04:08 | 19.92173 | -72.70731 | 37041 ft | 475 kts | 157° |
| 2026-05-05 04:09 | 19.86404 | -72.67348 | 37046 ft | 476 kts | 157° |
| 2026-05-05 04:09 | 19.80600 | -72.63933 | 37051 ft | 476 kts | 156° |
| 2026-05-05 04:10 | 19.74808 | -72.60525 | 37052 ft | 476 kts | 156° |
| 2026-05-05 04:10 | 19.69054 | -72.57119 | 37078 ft | 476 kts | 156° |
| 2026-05-05 04:11 | 19.63252 | -72.53685 | 37061 ft | 476 kts | 156° |
| 2026-05-05 04:11 | 19.57486 | -72.50280 | 37067 ft | 476 kts | 156° |
| 2026-05-05 04:12 | 19.51686 | -72.46860 | 37068 ft | 476 kts | 156° |
| 2026-05-05 04:12 | 19.45891 | -72.43446 | 37069 ft | 476 kts | 156° |
| 2026-05-05 04:13 | 19.40098 | -72.40038 | 37067 ft | 475 kts | 156° |
| 2026-05-05 04:13 | 19.34340 | -72.36653 | 37076 ft | 476 kts | 156° |
| 2026-05-05 04:14 | 19.28535 | -72.33241 | 37075 ft | 476 kts | 156° |
| 2026-05-05 04:14 | 19.22743 | -72.29841 | 37069 ft | 476 kts | 156° |
| 2026-05-05 04:15 | 19.16976 | -72.26459 | 37078 ft | 475 kts | 156° |
| 2026-05-05 04:15 | 19.11206 | -72.23077 | 37078 ft | 475 kts | 155° |
| 2026-05-05 04:16 | 19.05430 | -72.19692 | 37077 ft | 474 kts | 155° |
| 2026-05-05 04:16 | 18.99676 | -72.16328 | 37072 ft | 474 kts | 156° |
| 2026-05-05 04:17 | 18.93875 | -72.12939 | 37077 ft | 475 kts | 155° |
| 2026-05-05 04:17 | 18.88120 | -72.09574 | 37076 ft | 475 kts | 155° |
| 2026-05-05 04:18 | 18.82329 | -72.06192 | 37080 ft | 474 kts | 155° |
| 2026-05-05 04:18 | 18.76570 | -72.02833 | 37084 ft | 475 kts | 155° |
| 2026-05-05 04:19 | 18.70772 | -71.99455 | 37087 ft | 475 kts | 155° |
| 2026-05-05 04:19 | 18.64982 | -71.96084 | 37085 ft | 474 kts | 155° |
| 2026-05-05 04:20 | 18.59225 | -71.92731 | 37096 ft | 474 kts | 155° |
| 2026-05-05 04:20 | 18.53433 | -71.89365 | 37098 ft | 474 kts | 154° |
| 2026-05-05 04:21 | 18.47908 | -71.85592 | 37092 ft | 477 kts | 149° |
| 2026-05-05 04:21 | 18.42436 | -71.81606 | 37093 ft | 478 kts | 149° |
| 2026-05-05 04:22 | 18.36974 | -71.77584 | 37093 ft | 478 kts | 149° |
| 2026-05-05 04:22 | 18.31518 | -71.73575 | 37083 ft | 478 kts | 149° |
| 2026-05-05 04:23 | 18.26093 | -71.69603 | 37082 ft | 478 kts | 149° |
| 2026-05-05 04:23 | 18.20625 | -71.65606 | 37068 ft | 478 kts | 149° |
| 2026-05-05 04:24 | 18.15151 | -71.61609 | 37078 ft | 478 kts | 149° |
| 2026-05-05 04:25 | 18.06977 | -71.55644 | 37066 ft | 478 kts | 149° |
| 2026-05-05 04:25 | 18.01500 | -71.51651 | 37069 ft | 478 kts | 149° |
| 2026-05-05 04:26 | 17.96027 | -71.47663 | 37071 ft | 478 kts | 149° |
| 2026-05-05 04:26 | 17.90587 | -71.43703 | 37053 ft | 478 kts | 149° |
| 2026-05-05 04:27 | 17.85116 | -71.39724 | 37044 ft | 478 kts | 148° |
| 2026-05-05 04:27 | 17.79685 | -71.35777 | 37052 ft | 476 kts | 149° |
| 2026-05-05 04:28 | 17.74227 | -71.31812 | 37044 ft | 475 kts | 149° |
| 2026-05-05 04:28 | 17.68806 | -71.27878 | 37045 ft | 475 kts | 149° |
| 2026-05-05 04:29 | 17.63351 | -71.23923 | 37037 ft | 475 kts | 149° |
| 2026-05-05 04:29 | 17.57938 | -71.20000 | 37037 ft | 475 kts | 149° |
| 2026-05-05 04:30 | 17.52500 | -71.16062 | 37038 ft | 474 kts | 149° |
| 2026-05-05 04:30 | 17.47125 | -71.12173 | 37039 ft | 473 kts | 148° |
| 2026-05-05 04:31 | 17.41708 | -71.08256 | 37036 ft | 473 kts | 148° |
| 2026-05-05 04:31 | 17.36288 | -71.04340 | 37037 ft | 473 kts | 148° |
| 2026-05-05 04:32 | 17.30899 | -71.00450 | 37040 ft | 473 kts | 148° |
| 2026-05-05 04:32 | 17.25471 | -70.96534 | 37040 ft | 473 kts | 148° |
| 2026-05-05 04:33 | 17.20077 | -70.92649 | 37036 ft | 473 kts | 148° |
| 2026-05-05 04:33 | 17.14644 | -70.88733 | 37037 ft | 473 kts | 148° |
| 2026-05-05 04:34 | 17.09247 | -70.84846 | 37037 ft | 473 kts | 148° |
| 2026-05-05 04:34 | 17.03823 | -70.80936 | 37038 ft | 472 kts | 148° |
| 2026-05-05 04:35 | 16.98422 | -70.77048 | 37037 ft | 472 kts | 148° |
| 2026-05-05 04:35 | 16.93003 | -70.73152 | 37034 ft | 473 kts | 148° |
| 2026-05-05 04:36 | 16.87578 | -70.69252 | 37036 ft | 473 kts | 148° |
| 2026-05-05 04:36 | 16.82186 | -70.65379 | 37037 ft | 473 kts | 148° |
| 2026-05-05 04:37 | 16.76754 | -70.61480 | 37034 ft | 472 kts | 148° |
| 2026-05-05 04:37 | 16.71365 | -70.57615 | 37034 ft | 472 kts | 148° |
| 2026-05-05 04:38 | 16.65943 | -70.53728 | 37034 ft | 472 kts | 148° |
| 2026-05-05 04:38 | 16.60557 | -70.49870 | 37034 ft | 472 kts | 148° |
| 2026-05-05 04:39 | 16.55138 | -70.45991 | 37033 ft | 472 kts | 148° |
| 2026-05-05 04:39 | 16.49725 | -70.42119 | 37032 ft | 472 kts | 148° |
| 2026-05-05 04:40 | 16.44329 | -70.38263 | 37025 ft | 472 kts | 148° |
| 2026-05-05 04:40 | 16.38902 | -70.34386 | 37028 ft | 471 kts | 148° |
| 2026-05-05 04:41 | 16.33524 | -70.30547 | 37029 ft | 471 kts | 148° |
| 2026-05-05 04:41 | 16.28114 | -70.26688 | 37029 ft | 471 kts | 148° |
| 2026-05-05 04:42 | 16.22694 | -70.22824 | 37028 ft | 471 kts | 148° |
| 2026-05-05 04:42 | 16.17306 | -70.18986 | 37029 ft | 471 kts | 148° |
| 2026-05-05 04:43 | 16.11894 | -70.15133 | 37029 ft | 471 kts | 148° |
| 2026-05-05 04:43 | 16.06473 | -70.11277 | 37028 ft | 471 kts | 147° |
| 2026-05-05 04:44 | 16.01117 | -70.07406 | 37027 ft | 472 kts | 143° |
| 2026-05-05 04:44 | 15.96306 | -70.02743 | 37028 ft | 473 kts | 136° |
| 2026-05-05 04:45 | 15.91692 | -69.97832 | 37024 ft | 474 kts | 135° |
| 2026-05-05 04:45 | 15.87150 | -69.92921 | 37024 ft | 474 kts | 135° |
| 2026-05-05 04:46 | 15.82559 | -69.87977 | 37023 ft | 474 kts | 135° |
| 2026-05-05 04:46 | 15.77997 | -69.83087 | 37018 ft | 474 kts | 135° |
| 2026-05-05 04:47 | 15.73408 | -69.78179 | 37020 ft | 473 kts | 135° |
| 2026-05-05 04:47 | 15.68818 | -69.73273 | 37020 ft | 473 kts | 135° |
| 2026-05-05 04:48 | 15.64232 | -69.68374 | 37021 ft | 473 kts | 135° |
| 2026-05-05 04:48 | 15.59647 | -69.63479 | 37021 ft | 473 kts | 135° |
| 2026-05-05 04:49 | 15.55073 | -69.58612 | 37019 ft | 473 kts | 137° |
| 2026-05-05 04:49 | 15.49935 | -69.54376 | 37021 ft | 470 kts | 146° |
| 2026-05-05 04:50 | 15.44613 | -69.50502 | 37022 ft | 471 kts | 147° |
| 2026-05-05 04:50 | 15.39198 | -69.46652 | 37022 ft | 471 kts | 147° |
| 2026-05-05 04:51 | 15.33810 | -69.42816 | 37019 ft | 471 kts | 147° |
| 2026-05-05 04:51 | 15.29314 | -69.39603 | 37020 ft | 470 kts | 147° |
| 2026-05-05 04:52 | 15.23906 | -69.35734 | 37023 ft | 471 kts | 147° |
| 2026-05-05 04:52 | 15.18534 | -69.31891 | 37015 ft | 472 kts | 147° |
| 2026-05-05 04:53 | 15.13123 | -69.27998 | 37015 ft | 472 kts | 147° |
| 2026-05-05 04:53 | 15.07789 | -69.24111 | 37017 ft | 472 kts | 146° |
| 2026-05-05 04:54 | 15.02417 | -69.20200 | 37011 ft | 471 kts | 146° |
| 2026-05-05 04:54 | 14.97045 | -69.16301 | 37008 ft | 472 kts | 146° |
| 2026-05-05 04:55 | 14.91678 | -69.12412 | 37010 ft | 473 kts | 146° |
| 2026-05-05 04:55 | 14.86280 | -69.08505 | 37010 ft | 474 kts | 146° |
| 2026-05-05 04:56 | 14.80894 | -69.04602 | 37010 ft | 474 kts | 146° |
| 2026-05-05 04:56 | 14.75483 | -69.00682 | 37005 ft | 473 kts | 146° |
| 2026-05-05 04:57 | 14.70117 | -68.96801 | 37005 ft | 471 kts | 146° |
| 2026-05-05 04:57 | 14.64745 | -68.92917 | 37006 ft | 472 kts | 146° |
| 2026-05-05 04:58 | 14.59382 | -68.89044 | 37009 ft | 472 kts | 146° |
| 2026-05-05 04:58 | 14.53972 | -68.85141 | 37008 ft | 474 kts | 146° |
| 2026-05-05 04:59 | 14.48585 | -68.81256 | 37006 ft | 475 kts | 146° |
| 2026-05-05 04:59 | 14.43166 | -68.77349 | 37005 ft | 475 kts | 146° |
| 2026-05-05 05:00 | 14.37745 | -68.73445 | 37006 ft | 473 kts | 146° |
| 2026-05-05 05:00 | 14.32384 | -68.69582 | 37001 ft | 472 kts | 146° |
| 2026-05-05 05:01 | 14.26983 | -68.65676 | 37003 ft | 474 kts | 146° |
| 2026-05-05 05:01 | 14.21579 | -68.61772 | 37001 ft | 476 kts | 146° |
| 2026-05-05 05:02 | 14.16122 | -68.57834 | 37001 ft | 478 kts | 146° |
| 2026-05-05 05:02 | 14.10732 | -68.53948 | 37001 ft | 474 kts | 146° |
| 2026-05-05 05:03 | 14.05320 | -68.50050 | 36999 ft | 474 kts | 146° |
| 2026-05-05 05:03 | 13.99906 | -68.46152 | 37000 ft | 474 kts | 145° |
| 2026-05-05 05:04 | 13.94485 | -68.42254 | 37003 ft | 476 kts | 146° |
| 2026-05-05 05:04 | 13.89077 | -68.38413 | 36999 ft | 475 kts | 146° |
| 2026-05-05 05:05 | 13.83605 | -68.34547 | 37000 ft | 479 kts | 146° |
| 2026-05-05 05:05 | 13.78150 | -68.30678 | 36996 ft | 475 kts | 146° |
| 2026-05-05 05:06 | 13.72720 | -68.26772 | 37000 ft | 476 kts | 145° |
| 2026-05-05 05:06 | 13.67310 | -68.22880 | 36995 ft | 471 kts | 145° |
| 2026-05-05 05:07 | 13.61954 | -68.19038 | 36996 ft | 474 kts | 146° |
| 2026-05-05 05:07 | 13.56515 | -68.15144 | 36990 ft | 475 kts | 146° |
| 2026-05-05 05:08 | 13.51072 | -68.11251 | 36996 ft | 477 kts | 146° |
| 2026-05-05 05:08 | 13.45644 | -68.07370 | 36997 ft | 478 kts | 146° |
| 2026-05-05 05:09 | 13.40196 | -68.03476 | 36990 ft | 476 kts | 146° |
| 2026-05-05 05:09 | 13.34778 | -67.99606 | 36990 ft | 475 kts | 146° |
| 2026-05-05 05:10 | 13.29357 | -67.95736 | 36990 ft | 472 kts | 146° |
| 2026-05-05 05:10 | 13.23932 | -67.91867 | 36992 ft | 476 kts | 146° |
| 2026-05-05 05:11 | 13.18506 | -67.88007 | 36989 ft | 475 kts | 146° |
| 2026-05-05 05:11 | 13.13038 | -67.84115 | 36994 ft | 479 kts | 146° |
| 2026-05-05 05:12 | 13.07571 | -67.80226 | 36989 ft | 475 kts | 146° |
| 2026-05-05 05:12 | 13.02170 | -67.76399 | 36989 ft | 476 kts | 146° |
| 2026-05-05 05:13 | 12.96733 | -67.72545 | 36988 ft | 472 kts | 146° |
| 2026-05-05 05:13 | 12.91317 | -67.68708 | 36985 ft | 473 kts | 146° |
| 2026-05-05 05:14 | 12.85906 | -67.64882 | 36989 ft | 474 kts | 146° |
| 2026-05-05 05:14 | 12.80461 | -67.61046 | 36988 ft | 475 kts | 146° |
| 2026-05-05 05:15 | 12.74996 | -67.57197 | 36985 ft | 477 kts | 146° |
| 2026-05-05 05:15 | 12.69583 | -67.53386 | 36982 ft | 473 kts | 146° |
| 2026-05-05 05:16 | 12.64128 | -67.49547 | 36987 ft | 475 kts | 146° |
| 2026-05-05 05:16 | 12.58696 | -67.45727 | 36981 ft | 471 kts | 146° |
| 2026-05-05 05:17 | 12.53314 | -67.41945 | 36987 ft | 474 kts | 146° |
| 2026-05-05 05:17 | 12.47840 | -67.38100 | 36978 ft | 474 kts | 146° |
| 2026-05-05 05:18 | 12.42403 | -67.34282 | 36984 ft | 476 kts | 146° |
| 2026-05-05 05:18 | 12.36929 | -67.30441 | 36982 ft | 477 kts | 146° |
| 2026-05-05 05:19 | 12.31502 | -67.26634 | 36979 ft | 474 kts | 146° |
| 2026-05-05 05:19 | 12.26033 | -67.22800 | 36981 ft | 474 kts | 146° |
| 2026-05-05 05:20 | 12.20601 | -67.18993 | 36980 ft | 471 kts | 145° |
| 2026-05-05 05:20 | 12.15195 | -67.15208 | 36979 ft | 475 kts | 145° |
| 2026-05-05 05:21 | 12.09721 | -67.11376 | 36983 ft | 474 kts | 145° |
| 2026-05-05 05:21 | 12.04296 | -67.07580 | 36975 ft | 477 kts | 145° |
| 2026-05-05 05:22 | 11.98813 | -67.03747 | 36976 ft | 477 kts | 145° |
| 2026-05-05 05:22 | 11.93343 | -66.99922 | 36975 ft | 474 kts | 145° |
| 2026-05-05 05:23 | 11.87921 | -66.96121 | 36975 ft | 474 kts | 145° |
| 2026-05-05 05:23 | 11.82472 | -66.92304 | 36976 ft | 473 kts | 145° |
| 2026-05-05 05:24 | 11.77069 | -66.88525 | 36974 ft | 474 kts | 145° |
| 2026-05-05 05:24 | 11.71605 | -66.84699 | 36970 ft | 474 kts | 145° |
| 2026-05-05 05:25 | 11.66171 | -66.80887 | 36973 ft | 475 kts | 145° |
| 2026-05-05 05:25 | 11.60731 | -66.77073 | 36975 ft | 477 kts | 145° |
| 2026-05-05 05:26 | 11.55255 | -66.73241 | 36973 ft | 474 kts | 145° |
| 2026-05-05 05:26 | 11.49815 | -66.69422 | 36977 ft | 475 kts | 145° |
| 2026-05-05 05:27 | 11.44411 | -66.65624 | 36970 ft | 472 kts | 145° |
| 2026-05-05 05:27 | 11.36316 | -66.59943 | 36970 ft | 473 kts | 145° |
| 2026-05-05 05:28 | 11.30875 | -66.56128 | 36971 ft | 473 kts | 145° |
| 2026-05-05 05:28 | 11.25432 | -66.52315 | 36969 ft | 474 kts | 145° |
| 2026-05-05 05:29 | 11.20018 | -66.48524 | 36971 ft | 474 kts | 145° |
| 2026-05-05 05:29 | 11.14569 | -66.44711 | 36972 ft | 474 kts | 145° |
| 2026-05-05 05:30 | 11.09174 | -66.40920 | 36973 ft | 474 kts | 145° |
| 2026-05-05 05:30 | 11.03747 | -66.37099 | 36974 ft | 473 kts | 145° |
| 2026-05-05 05:31 | 10.98328 | -66.33291 | 36974 ft | 471 kts | 145° |
| 2026-05-05 05:31 | 10.92959 | -66.29513 | 36973 ft | 471 kts | 145° |
| 2026-05-05 05:32 | 10.87562 | -66.25718 | 36976 ft | 471 kts | 145° |
| 2026-05-05 05:32 | 10.82171 | -66.21930 | 36974 ft | 471 kts | 145° |
| 2026-05-05 05:33 | 10.76761 | -66.18200 | 36983 ft | 472 kts | 146° |
| 2026-05-05 05:33 | 10.71276 | -66.14479 | 36981 ft | 472 kts | 146° |
| 2026-05-05 05:34 | 10.65844 | -66.10792 | 36977 ft | 471 kts | 146° |
| 2026-05-05 05:34 | 10.60405 | -66.07091 | 36977 ft | 470 kts | 146° |
| 2026-05-05 05:35 | 10.54923 | -66.03425 | 36977 ft | 470 kts | 149° |
| 2026-05-05 05:35 | 10.49223 | -66.00171 | 36978 ft | 470 kts | 152° |
| 2026-05-05 05:36 | 10.43489 | -65.97030 | 36979 ft | 470 kts | 151° |
| 2026-05-05 05:36 | 10.37740 | -65.93814 | 36979 ft | 470 kts | 151° |
| 2026-05-05 05:37 | 10.32051 | -65.90580 | 36984 ft | 470 kts | 150° |
| 2026-05-05 05:37 | 10.27302 | -65.87869 | 36984 ft | 469 kts | 150° |
| 2026-05-05 05:38 | 10.20677 | -65.84090 | 36980 ft | 468 kts | 150° |
| 2026-05-05 05:38 | 10.15953 | -65.81398 | 36979 ft | 468 kts | 150° |
| 2026-05-05 05:39 | 10.10262 | -65.78158 | 36982 ft | 468 kts | 150° |
| 2026-05-05 05:39 | 10.04481 | -65.75105 | 36982 ft | 468 kts | 156° |
| 2026-05-05 05:40 | 9.98544 | -65.72447 | 36977 ft | 468 kts | 157° |
| 2026-05-05 05:40 | 9.92549 | -65.69844 | 36977 ft | 468 kts | 157° |
| 2026-05-05 05:41 | 9.86541 | -65.67245 | 36979 ft | 468 kts | 157° |
| 2026-05-05 05:41 | 9.80581 | -65.64658 | 36979 ft | 468 kts | 157° |
| 2026-05-05 05:42 | 9.74575 | -65.62047 | 36974 ft | 468 kts | 157° |
| 2026-05-05 05:42 | 9.68610 | -65.59453 | 36969 ft | 468 kts | 157° |
| 2026-05-05 05:43 | 9.62613 | -65.56852 | 36960 ft | 468 kts | 157° |
| 2026-05-05 05:43 | 9.56668 | -65.54268 | 36961 ft | 467 kts | 157° |
| 2026-05-05 05:44 | 9.50684 | -65.51668 | 36963 ft | 467 kts | 157° |
| 2026-05-05 05:44 | 9.44702 | -65.49071 | 36958 ft | 467 kts | 157° |
| 2026-05-05 05:45 | 9.38765 | -65.46495 | 36961 ft | 467 kts | 157° |
| 2026-05-05 05:45 | 9.32775 | -65.43898 | 36960 ft | 467 kts | 157° |
| 2026-05-05 05:46 | 9.26824 | -65.41318 | 36961 ft | 467 kts | 157° |
| 2026-05-05 05:46 | 9.20841 | -65.38725 | 36957 ft | 466 kts | 157° |
| 2026-05-05 05:47 | 9.14865 | -65.36137 | 36955 ft | 466 kts | 157° |
| 2026-05-05 05:47 | 9.08924 | -65.33564 | 36958 ft | 466 kts | 157° |
| 2026-05-05 05:48 | 9.02945 | -65.30976 | 36952 ft | 467 kts | 157° |
| 2026-05-05 05:48 | 8.96964 | -65.28388 | 36953 ft | 466 kts | 158° |
| 2026-05-05 05:49 | 8.91026 | -65.25820 | 36955 ft | 466 kts | 158° |
| 2026-05-05 05:49 | 8.85061 | -65.23241 | 36955 ft | 465 kts | 158° |
| 2026-05-05 05:50 | 8.79132 | -65.20681 | 36955 ft | 465 kts | 158° |
| 2026-05-05 05:50 | 8.73183 | -65.18109 | 36955 ft | 465 kts | 158° |
| 2026-05-05 05:51 | 8.67216 | -65.15528 | 36952 ft | 465 kts | 158° |
| 2026-05-05 05:51 | 8.61296 | -65.12970 | 36952 ft | 465 kts | 158° |
| 2026-05-05 05:52 | 8.55335 | -65.10396 | 36955 ft | 465 kts | 158° |
| 2026-05-05 05:52 | 8.49412 | -65.07839 | 36955 ft | 465 kts | 158° |
| 2026-05-05 05:53 | 8.43455 | -65.05269 | 36952 ft | 465 kts | 158° |
| 2026-05-05 05:53 | 8.37495 | -65.02699 | 36950 ft | 465 kts | 158° |
| 2026-05-05 05:54 | 8.31564 | -65.00141 | 36950 ft | 465 kts | 158° |
| 2026-05-05 05:54 | 8.25614 | -64.97576 | 36954 ft | 465 kts | 158° |
| 2026-05-05 05:55 | 8.19684 | -64.95020 | 36949 ft | 464 kts | 158° |
| 2026-05-05 05:55 | 8.13741 | -64.92460 | 36949 ft | 463 kts | 158° |
| 2026-05-05 05:56 | 8.07832 | -64.89916 | 36946 ft | 463 kts | 158° |
| 2026-05-05 05:56 | 8.01889 | -64.87357 | 36947 ft | 463 kts | 158° |
| 2026-05-05 05:57 | 7.95963 | -64.84807 | 36944 ft | 464 kts | 158° |
| 2026-05-05 05:57 | 7.90024 | -64.82251 | 36943 ft | 464 kts | 158° |
| 2026-05-05 05:58 | 7.84122 | -64.79713 | 36943 ft | 463 kts | 158° |
| 2026-05-05 05:58 | 7.78196 | -64.77165 | 36941 ft | 462 kts | 158° |
| 2026-05-05 05:59 | 7.72275 | -64.74620 | 36941 ft | 462 kts | 158° |
| 2026-05-05 05:59 | 7.66383 | -64.72088 | 36944 ft | 462 kts | 158° |
| 2026-05-05 06:00 | 7.60443 | -64.69536 | 36946 ft | 462 kts | 158° |
| 2026-05-05 06:00 | 7.54532 | -64.66998 | 36947 ft | 462 kts | 158° |
| 2026-05-05 06:01 | 7.48641 | -64.64468 | 36944 ft | 462 kts | 158° |
| 2026-05-05 06:01 | 7.42720 | -64.61927 | 36944 ft | 461 kts | 158° |
| 2026-05-05 06:02 | 7.36802 | -64.59388 | 36947 ft | 461 kts | 158° |
| 2026-05-05 06:02 | 7.30932 | -64.56856 | 36947 ft | 461 kts | 158° |
| 2026-05-05 06:03 | 7.25023 | -64.54283 | 36950 ft | 461 kts | 158° |
| 2026-05-05 06:03 | 7.19121 | -64.51716 | 36949 ft | 461 kts | 157° |
| 2026-05-05 06:04 | 7.13255 | -64.49170 | 36949 ft | 460 kts | 157° |
| 2026-05-05 06:04 | 7.07382 | -64.46624 | 36952 ft | 459 kts | 157° |
| 2026-05-05 06:05 | 7.01500 | -64.44075 | 36955 ft | 459 kts | 157° |
| 2026-05-05 06:05 | 6.95658 | -64.41545 | 36955 ft | 459 kts | 157° |
| 2026-05-05 06:06 | 6.89805 | -64.39010 | 36952 ft | 459 kts | 157° |
| 2026-05-05 06:06 | 6.83926 | -64.36463 | 36950 ft | 459 kts | 157° |
| 2026-05-05 06:07 | 6.78049 | -64.33919 | 36960 ft | 458 kts | 157° |
| 2026-05-05 06:07 | 6.72227 | -64.31399 | 36960 ft | 458 kts | 157° |
| 2026-05-05 06:08 | 6.66363 | -64.28862 | 36958 ft | 458 kts | 157° |
| 2026-05-05 06:08 | 6.60535 | -64.26341 | 36958 ft | 458 kts | 157° |
| 2026-05-05 06:09 | 6.54672 | -64.23806 | 36961 ft | 458 kts | 157° |
| 2026-05-05 06:09 | 6.48842 | -64.21285 | 36963 ft | 458 kts | 157° |
| 2026-05-05 06:10 | 6.42976 | -64.18750 | 36963 ft | 458 kts | 157° |
| 2026-05-05 06:10 | 6.37116 | -64.16218 | 36963 ft | 458 kts | 157° |
| 2026-05-05 06:11 | 6.31281 | -64.13697 | 36960 ft | 458 kts | 157° |
| 2026-05-05 06:11 | 6.25422 | -64.11166 | 36958 ft | 458 kts | 157° |
| 2026-05-05 06:12 | 6.19548 | -64.08630 | 36960 ft | 458 kts | 157° |
| 2026-05-05 06:12 | 6.13723 | -64.06115 | 36961 ft | 457 kts | 157° |
| 2026-05-05 06:13 | 6.07868 | -64.03588 | 36960 ft | 457 kts | 157° |
| 2026-05-05 06:13 | 6.02054 | -64.01080 | 36966 ft | 458 kts | 157° |
| 2026-05-05 06:14 | 5.96185 | -63.98547 | 36968 ft | 458 kts | 157° |
| 2026-05-05 06:14 | 5.90339 | -63.96026 | 36968 ft | 458 kts | 157° |
| 2026-05-05 06:15 | 5.84476 | -63.93498 | 36971 ft | 458 kts | 157° |
| 2026-05-05 06:15 | 5.78648 | -63.90986 | 36971 ft | 458 kts | 157° |
| 2026-05-05 06:16 | 5.72788 | -63.88460 | 36971 ft | 458 kts | 157° |
| 2026-05-05 06:16 | 5.66922 | -63.85933 | 36976 ft | 458 kts | 157° |
| 2026-05-05 06:17 | 5.61059 | -63.83407 | 36977 ft | 457 kts | 157° |
| 2026-05-05 06:17 | 5.55224 | -63.80894 | 36975 ft | 458 kts | 157° |
| 2026-05-05 06:18 | 5.49398 | -63.78385 | 36974 ft | 458 kts | 157° |
| 2026-05-05 06:18 | 5.43540 | -63.75863 | 36971 ft | 456 kts | 156° |
| 2026-05-05 06:19 | 5.37716 | -63.73356 | 36969 ft | 454 kts | 156° |
| 2026-05-05 06:19 | 5.31897 | -63.70851 | 36966 ft | 454 kts | 156° |
| 2026-05-05 06:20 | 5.26112 | -63.68363 | 36966 ft | 454 kts | 156° |
| 2026-05-05 06:20 | 5.20273 | -63.65851 | 36966 ft | 454 kts | 156° |
| 2026-05-05 06:21 | 5.14489 | -63.63363 | 36966 ft | 454 kts | 156° |
| 2026-05-05 06:21 | 5.08659 | -63.60857 | 36967 ft | 456 kts | 156° |
| 2026-05-05 06:22 | 5.02846 | -63.58358 | 36969 ft | 458 kts | 156° |
| 2026-05-05 06:22 | 4.96975 | -63.55834 | 36969 ft | 458 kts | 156° |
| 2026-05-05 06:23 | 4.91111 | -63.53314 | 36975 ft | 458 kts | 156° |
| 2026-05-05 06:23 | 4.85251 | -63.50796 | 36975 ft | 458 kts | 156° |
| 2026-05-05 06:24 | 4.79425 | -63.48293 | 36970 ft | 458 kts | 156° |
| 2026-05-05 06:24 | 4.73549 | -63.45770 | 36983 ft | 459 kts | 156° |
| 2026-05-05 06:25 | 4.67645 | -63.43235 | 36981 ft | 460 kts | 156° |
| 2026-05-05 06:25 | 4.61810 | -63.40730 | 36990 ft | 457 kts | 156° |
| 2026-05-05 06:26 | 4.55957 | -63.38217 | 36987 ft | 456 kts | 156° |
| 2026-05-05 06:26 | 4.50148 | -63.35723 | 36983 ft | 456 kts | 156° |
| 2026-05-05 06:27 | 4.41401 | -63.31970 | 36993 ft | 456 kts | 156° |
| 2026-05-05 06:28 | 4.35538 | -63.29454 | 36997 ft | 458 kts | 156° |
| 2026-05-05 06:28 | 4.30658 | -63.27361 | 36997 ft | 459 kts | 156° |
| 2026-05-05 06:29 | 4.24763 | -63.24834 | 36989 ft | 459 kts | 156° |
| 2026-05-05 06:29 | 4.18918 | -63.22327 | 36996 ft | 459 kts | 156° |
| 2026-05-05 06:30 | 4.13035 | -63.19805 | 36999 ft | 459 kts | 156° |
| 2026-05-05 06:30 | 4.07191 | -63.17300 | 37001 ft | 459 kts | 156° |
| 2026-05-05 06:31 | 4.01303 | -63.14776 | 36999 ft | 460 kts | 156° |
| 2026-05-05 06:31 | 3.95446 | -63.12267 | 37000 ft | 460 kts | 156° |
| 2026-05-05 06:32 | 3.89514 | -63.09725 | 36999 ft | 463 kts | 156° |
| 2026-05-05 06:32 | 3.83626 | -63.07203 | 37000 ft | 462 kts | 156° |
| 2026-05-05 06:33 | 3.77704 | -63.04667 | 36992 ft | 461 kts | 156° |
| 2026-05-05 06:33 | 3.71835 | -63.02153 | 36996 ft | 462 kts | 157° |
| 2026-05-05 06:34 | 3.65934 | -62.99626 | 36992 ft | 460 kts | 157° |
| 2026-05-05 06:34 | 3.60039 | -62.97104 | 36989 ft | 459 kts | 157° |
| 2026-05-05 06:35 | 3.54197 | -62.94615 | 36993 ft | 459 kts | 157° |
| 2026-05-05 06:35 | 3.48298 | -62.92104 | 36982 ft | 459 kts | 157° |
| 2026-05-05 06:36 | 3.42412 | -62.89599 | 36984 ft | 459 kts | 157° |
| 2026-05-05 06:36 | 3.36547 | -62.87102 | 36977 ft | 459 kts | 157° |
| 2026-05-05 06:37 | 3.30655 | -62.84595 | 36980 ft | 459 kts | 157° |
| 2026-05-05 06:37 | 3.24807 | -62.82106 | 36976 ft | 459 kts | 157° |
| 2026-05-05 06:38 | 3.18914 | -62.79598 | 36974 ft | 459 kts | 157° |
| 2026-05-05 06:38 | 3.13058 | -62.77106 | 36976 ft | 459 kts | 157° |
| 2026-05-05 06:39 | 3.07171 | -62.74602 | 36968 ft | 459 kts | 157° |
| 2026-05-05 06:39 | 3.01293 | -62.72102 | 36968 ft | 459 kts | 157° |
| 2026-05-05 06:40 | 2.95447 | -62.69615 | 36970 ft | 459 kts | 157° |
| 2026-05-05 06:40 | 2.89564 | -62.67113 | 36970 ft | 459 kts | 157° |
| 2026-05-05 06:41 | 2.83672 | -62.64607 | 36970 ft | 459 kts | 157° |
| 2026-05-05 06:41 | 2.77828 | -62.62123 | 36965 ft | 459 kts | 157° |
| 2026-05-05 06:42 | 2.71945 | -62.59621 | 36970 ft | 459 kts | 157° |
| 2026-05-05 06:42 | 2.66098 | -62.57136 | 36964 ft | 458 kts | 157° |
| 2026-05-05 06:43 | 2.60204 | -62.54631 | 36965 ft | 459 kts | 157° |
| 2026-05-05 06:43 | 2.54350 | -62.52143 | 36962 ft | 460 kts | 157° |
| 2026-05-05 06:44 | 2.48468 | -62.49643 | 36956 ft | 457 kts | 157° |
| 2026-05-05 06:44 | 2.42613 | -62.47155 | 36955 ft | 457 kts | 157° |
| 2026-05-05 06:45 | 2.36758 | -62.44667 | 36958 ft | 456 kts | 157° |
| 2026-05-05 06:45 | 2.30938 | -62.42194 | 36954 ft | 456 kts | 157° |
| 2026-05-05 06:46 | 2.25085 | -62.39708 | 36952 ft | 456 kts | 157° |
| 2026-05-05 06:46 | 2.19276 | -62.37237 | 36951 ft | 456 kts | 157° |
| 2026-05-05 06:47 | 2.13458 | -62.34674 | 36951 ft | 456 kts | 156° |
| 2026-05-05 06:47 | 2.07648 | -62.32081 | 36952 ft | 456 kts | 156° |
| 2026-05-05 06:48 | 2.01877 | -62.29517 | 36955 ft | 456 kts | 156° |
| 2026-05-05 06:48 | 1.96071 | -62.26948 | 36954 ft | 456 kts | 156° |
| 2026-05-05 06:49 | 1.90265 | -62.24382 | 36955 ft | 455 kts | 156° |
| 2026-05-05 06:49 | 1.84493 | -62.21832 | 36954 ft | 455 kts | 156° |
| 2026-05-05 06:50 | 1.78673 | -62.19260 | 36955 ft | 456 kts | 156° |
| 2026-05-05 06:50 | 1.72903 | -62.16710 | 36963 ft | 456 kts | 156° |
| 2026-05-05 06:51 | 1.67092 | -62.14142 | 36965 ft | 455 kts | 156° |
| 2026-05-05 06:51 | 1.61306 | -62.11586 | 36965 ft | 453 kts | 156° |
| 2026-05-05 06:52 | 1.55562 | -62.09048 | 36967 ft | 454 kts | 156° |
| 2026-05-05 06:52 | 1.49787 | -62.06497 | 36966 ft | 454 kts | 156° |
| 2026-05-05 06:53 | 1.43998 | -62.03939 | 36959 ft | 454 kts | 156° |
| 2026-05-05 06:53 | 1.38218 | -62.01386 | 36962 ft | 454 kts | 156° |
| 2026-05-05 06:54 | 1.32435 | -61.98832 | 36954 ft | 453 kts | 156° |
| 2026-05-05 06:54 | 1.26708 | -61.96302 | 36955 ft | 452 kts | 156° |
| 2026-05-05 06:55 | 1.20920 | -61.93745 | 36954 ft | 453 kts | 156° |
| 2026-05-05 06:55 | 1.15178 | -61.91209 | 36947 ft | 453 kts | 156° |
| 2026-05-05 06:56 | 1.09384 | -61.88651 | 36950 ft | 454 kts | 156° |
| 2026-05-05 06:56 | 1.03630 | -61.86109 | 36943 ft | 454 kts | 156° |
| 2026-05-05 06:57 | 0.97846 | -61.83555 | 36942 ft | 454 kts | 156° |
| 2026-05-05 06:57 | 0.92077 | -61.81008 | 36943 ft | 454 kts | 156° |
| 2026-05-05 06:58 | 0.86288 | -61.78451 | 36944 ft | 454 kts | 156° |
| 2026-05-05 06:58 | 0.80498 | -61.75895 | 36946 ft | 455 kts | 156° |
| 2026-05-05 06:59 | 0.74707 | -61.73338 | 36946 ft | 455 kts | 156° |
| 2026-05-05 06:59 | 0.68949 | -61.70795 | 36949 ft | 454 kts | 156° |
| 2026-05-05 07:00 | 0.65068 | -61.69082 | 36948 ft | 454 kts | 156° |